Terminal Aerodrome Forecast
Issued by NWS Upton, NY

Home | Current Version | Previous Version | Text Only | Print | Product List | Glossary On
Versions: 1 2 3 4 5 6 7 8 9 10 11 12 13 14 15 16 17 18 19 20 21 22 23 24 25 26 27 28 29 30 31 32 33 34 35 36 37 38
610
FTUS41 KOKX 231945 AAA
TAFBDR
TAF AMD
KBDR 231945Z 2320/2418 06028G36KT 6SM -DZ BR OVC030
      TEMPO 2323/2324 4SM -RA OVC015
     FM240000 06027G44KT 3SM RA BR OVC010
     FM240400 05030G49KT 2SM RA BR OVC008
     FM240600 05028G43KT 2SM +RA BR OVC006
     FM240800 03022G33KT 3SM RA BR OVC006
     FM241500 01015G26KT 3SM -RA BR OVC008=

USA.gov is the U.S. government's official web portal to all federal, state and local government web resources and services.